Time;durP1;ratioP1;P1;durP2;ratioP2;P2;SDS_P1;SDS_P2;PMS_P1;PMS_P2;Temp;Humidity;BMP_temperature;BMP_pressure;BME280_temperature;BME280_humidity;BME280_pressure;Samples;Min_cycle;Max_cycle;Signal;HPM_P1;HPM_P2
2023/02/01 00:02:42;;;;;;;10.52;7.95;;;5.70;99.90;;;;;;6208116;28;20057;-81
2023/02/01 00:05:43;;;;;;;10.77;7.75;;;5.70;99.90;;;;;;6203781;28;20054;-81
2023/02/01 00:08:45;;;;;;;10.32;7.05;;;5.70;99.90;;;;;;6202168;28;20057;-81
2023/02/01 00:11:48;;;;;;;8.15;5.95;;;5.70;99.90;;;;;;6207565;28;20049;-81
2023/02/01 00:14:50;;;;;;;10.00;7.97;;;5.70;99.90;;;;;;6208636;28;20046;-82
2023/02/01 00:17:54;;;;;;;11.93;8.40;;;5.70;99.90;;;;;;6204103;28;20050;-82
2023/02/01 00:20:56;;;;;;;8.35;6.20;;;5.80;99.90;;;;;;6203907;28;20062;-82
2023/02/01 00:23:58;;;;;;;9.93;7.05;;;5.80;99.90;;;;;;6202921;28;20053;-81
2023/02/01 00:27:01;;;;;;;12.20;5.85;;;5.80;99.90;;;;;;6202075;28;20046;-81
2023/02/01 00:30:04;;;;;;;8.93;6.32;;;5.80;99.90;;;;;;6202346;28;20049;-81
2023/02/01 00:33:06;;;;;;;11.85;6.78;;;5.80;99.90;;;;;;6202400;28;20054;-81
2023/02/01 00:36:14;;;;;;;12.50;6.20;;;5.80;99.90;;;;;;6202383;28;20125;-81
2023/02/01 00:39:16;;;;;;;9.98;5.85;;;5.80;99.90;;;;;;6202493;28;20413;-80
2023/02/01 00:42:19;;;;;;;7.18;5.57;;;5.80;99.90;;;;;;6202013;28;20057;-81
2023/02/01 00:45:21;;;;;;;9.35;5.07;;;5.80;99.90;;;;;;6202138;28;20429;-81
2023/02/01 00:48:23;;;;;;;9.77;6.32;;;5.90;99.90;;;;;;6201065;28;20038;-82
2023/02/01 00:51:26;;;;;;;10.45;8.00;;;5.90;99.90;;;;;;6201633;28;20056;-81
2023/02/01 00:54:28;;;;;;;7.47;4.90;;;5.80;99.90;;;;;;6201810;28;20046;-81
2023/02/01 00:57:32;;;;;;;6.00;4.40;;;5.80;99.90;;;;;;6202391;28;20050;-82
2023/02/01 01:00:34;;;;;;;8.57;5.50;;;5.80;99.90;;;;;;6200692;28;20541;-81
2023/02/01 01:03:38;;;;;;;6.47;5.18;;;5.80;99.90;;;;;;6210029;28;20053;-81
2023/02/01 01:06:40;;;;;;;5.25;4.20;;;5.80;99.90;;;;;;6202597;28;20050;-81
2023/02/01 01:09:42;;;;;;;10.98;5.28;;;5.80;99.90;;;;;;6202133;28;20043;-81
2023/02/01 01:12:45;;;;;;;8.30;6.40;;;5.80;99.90;;;;;;6202802;28;20505;-81
2023/02/01 01:15:46;;;;;;;6.45;4.68;;;5.80;99.90;;;;;;6201891;28;20046;-81
2023/02/01 01:18:48;;;;;;;6.18;5.13;;;5.80;99.90;;;;;;6202406;28;20057;-82
2023/02/01 01:21:50;;;;;;;8.48;5.30;;;5.80;99.90;;;;;;6205754;28;20054;-82
2023/02/01 01:24:52;;;;;;;6.20;4.65;;;5.90;99.90;;;;;;6207591;28;20046;-82
2023/02/01 01:27:55;;;;;;;8.73;5.72;;;5.90;99.90;;;;;;6206749;28;20050;-82
2023/02/01 01:30:57;;;;;;;7.75;4.95;;;5.90;99.90;;;;;;6209157;28;20054;-82
2023/02/01 01:34:00;;;;;;;6.95;5.18;;;5.90;99.90;;;;;;6208388;28;20054;-82
2023/02/01 01:37:02;;;;;;;6.45;5.82;;;5.80;99.90;;;;;;6212162;28;20050;-80
2023/02/01 01:40:04;;;;;;;7.30;4.45;;;5.90;99.90;;;;;;6205674;28;20056;-81
2023/02/01 01:43:14;;;;;;;8.52;5.05;;;5.90;99.90;;;;;;6205617;28;20046;-81
2023/02/01 01:46:18;;;;;;;5.75;5.05;;;5.90;99.90;;;;;;6205428;28;20042;-80
2023/02/01 01:49:24;;;;;;;6.78;4.68;;;5.90;99.90;;;;;;6206435;28;20466;-80
2023/02/01 01:52:26;;;;;;;5.07;4.47;;;5.90;99.90;;;;;;6205305;28;20050;-80
2023/02/01 01:55:32;;;;;;;8.38;4.43;;;5.90;99.90;;;;;;6203161;28;20050;-81
2023/02/01 01:58:36;;;;;;;12.75;5.82;;;5.90;99.90;;;;;;6205220;28;20054;-79
2023/02/01 02:01:37;;;;;;;5.82;4.82;;;5.90;99.90;;;;;;6204480;28;20061;-81
2023/02/01 02:04:39;;;;;;;6.57;5.75;;;5.90;99.90;;;;;;6205259;28;20050;-80
2023/02/01 02:07:46;;;;;;;7.25;4.68;;;5.90;99.90;;;;;;6205775;28;20027;-80
2023/02/01 02:11:01;;;;;;;7.57;5.75;;;5.90;99.90;;;;;;6206309;28;20050;-79
2023/02/01 02:14:07;;;;;;;9.38;4.28;;;5.90;99.90;;;;;;6206519;28;20409;-80
2023/02/01 02:17:21;;;;;;;8.07;5.45;;;5.90;99.90;;;;;;6205650;28;20054;-80
2023/02/01 02:20:47;;;;;;;8.85;5.57;;;5.90;99.90;;;;;;6205590;28;20450;-81
2023/02/01 02:24:13;;;;;;;7.85;5.28;;;5.90;99.90;;;;;;6206001;28;20054;-81
2023/02/01 02:31:25;;;;;;;6.60;4.97;;;5.80;99.90;;;;;;6204901;28;20420;-80
2023/02/01 02:34:31;;;;;;;7.30;5.30;;;5.80;99.90;;;;;;6206499;28;20502;-79
2023/02/01 02:37:39;;;;;;;10.05;6.50;;;5.80;99.90;;;;;;6205612;28;20060;-78
2023/02/01 02:40:50;;;;;;;6.22;4.90;;;5.80;99.90;;;;;;6204464;28;20494;-81
2023/02/01 02:47:27;;;;;;;8.05;5.28;;;5.80;99.90;;;;;;6204152;28;20413;-79
2023/02/01 03:04:08;;;;;;;8.27;4.55;;;5.90;99.90;;;;;;6204220;28;20046;-81
2023/02/01 03:11:08;;;;;;;11.38;5.03;;;5.90;99.90;;;;;;6203640;28;20049;-79
2023/02/01 03:14:22;;;;;;;5.80;4.90;;;5.80;99.90;;;;;;6206215;28;20038;-81
2023/02/01 03:17:32;;;;;;;5.63;4.47;;;5.70;99.90;;;;;;6202836;28;20422;-80
2023/02/01 03:20:34;;;;;;;9.90;5.65;;;5.60;99.90;;;;;;6203041;28;20045;-81
2023/02/01 03:23:38;;;;;;;7.00;4.88;;;5.50;99.90;;;;;;6203049;28;20057;-81
2023/02/01 03:26:49;;;;;;;6.85;5.07;;;5.50;99.90;;;;;;6202631;28;20145;-81
2023/02/01 03:29:55;;;;;;;7.47;5.28;;;5.50;99.90;;;;;;6201717;28;20054;-81
2023/02/01 03:33:00;;;;;;;6.00;4.63;;;5.50;99.90;;;;;;6203061;28;20135;-81
2023/02/01 03:36:12;;;;;;;9.00;6.10;;;5.40;99.90;;;;;;6203255;28;20422;-80
2023/02/01 03:39:19;;;;;;;6.53;5.82;;;5.50;99.90;;;;;;6202586;28;20058;-80
2023/02/01 03:42:29;;;;;;;7.22;5.20;;;5.50;99.90;;;;;;6201519;28;20057;-80
2023/02/01 03:45:36;;;;;;;6.75;4.95;;;5.50;99.90;;;;;;6201471;28;20069;-80
2023/02/01 03:48:40;;;;;;;6.85;5.13;;;5.50;99.90;;;;;;6201682;28;20042;-79
2023/02/01 03:51:42;;;;;;;10.65;5.22;;;5.50;99.90;;;;;;6201909;28;20046;-81
2023/02/01 03:54:44;;;;;;;8.18;5.32;;;5.50;99.90;;;;;;6201028;28;20046;-81
2023/02/01 03:57:53;;;;;;;5.75;4.68;;;5.60;99.90;;;;;;6201461;28;20050;-80
2023/02/01 04:00:58;;;;;;;13.57;7.68;;;5.60;99.90;;;;;;6201346;28;20052;-80
2023/02/01 04:04:00;;;;;;;9.85;5.70;;;5.60;99.90;;;;;;6201724;28;20047;-81
2023/02/01 04:07:01;;;;;;;7.60;5.28;;;5.60;99.90;;;;;;6201050;28;20682;-82
2023/02/01 04:10:04;;;;;;;8.95;4.70;;;5.70;99.90;;;;;;6202233;28;20029;-81
2023/02/01 04:13:07;;;;;;;5.63;4.68;;;5.60;99.90;;;;;;6201736;28;20050;-81
2023/02/01 04:16:09;;;;;;;11.00;5.85;;;5.60;99.90;;;;;;6201553;28;20061;-81
2023/02/01 04:19:10;;;;;;;6.68;4.60;;;5.60;99.90;;;;;;6201349;28;20051;-80
2023/02/01 04:22:12;;;;;;;11.00;6.35;;;5.50;99.90;;;;;;6201494;28;20046;-81
2023/02/01 04:25:14;;;;;;;7.13;5.10;;;5.50;99.90;;;;;;6201634;28;20054;-80
2023/02/01 04:28:20;;;;;;;8.70;5.40;;;5.50;99.90;;;;;;6202135;28;20050;-80
2023/02/01 04:31:25;;;;;;;6.20;5.13;;;5.50;99.90;;;;;;6201360;28;20528;-80
2023/02/01 04:34:26;;;;;;;6.35;5.18;;;5.50;99.90;;;;;;6200854;28;20645;-82
2023/02/01 04:37:28;;;;;;;8.32;5.30;;;5.50;99.90;;;;;;6202094;28;20050;-80
2023/02/01 04:40:30;;;;;;;7.57;4.35;;;5.50;99.90;;;;;;6201408;28;20105;-81
2023/02/01 04:43:33;;;;;;;7.32;5.18;;;5.50;99.90;;;;;;6201248;28;20544;-82
2023/02/01 04:46:35;;;;;;;5.80;4.88;;;5.50;99.90;;;;;;6201622;28;20084;-80
2023/02/01 04:49:36;;;;;;;6.45;4.28;;;5.50;99.90;;;;;;6201096;28;20513;-81
2023/02/01 04:52:38;;;;;;;6.13;4.40;;;5.50;99.90;;;;;;6201103;28;20532;-79
2023/02/01 04:55:40;;;;;;;8.55;4.43;;;5.50;99.90;;;;;;6203672;28;20050;-80
2023/02/01 04:58:43;;;;;;;7.82;5.70;;;5.50;99.90;;;;;;6205357;28;20053;-81
2023/02/01 05:01:45;;;;;;;7.68;4.75;;;5.50;99.90;;;;;;6205519;28;20057;-80
2023/02/01 05:04:46;;;;;;;8.88;5.13;;;5.50;99.90;;;;;;6206344;28;20058;-80
2023/02/01 05:07:48;;;;;;;7.05;6.28;;;5.50;99.90;;;;;;6205262;28;20053;-80
2023/02/01 05:10:50;;;;;;;8.00;5.72;;;5.40;99.90;;;;;;6212867;28;20506;-79
2023/02/01 05:13:52;;;;;;;8.43;4.35;;;5.30;99.90;;;;;;6218759;28;20050;-80
2023/02/01 05:16:53;;;;;;;6.30;4.60;;;5.20;99.90;;;;;;6209499;28;20054;-80
2023/02/01 05:19:55;;;;;;;10.27;5.03;;;5.20;99.90;;;;;;6207464;28;20055;-80
2023/02/01 05:22:57;;;;;;;7.20;5.00;;;5.20;99.90;;;;;;6208411;28;20057;-80
2023/02/01 05:26:03;;;;;;;8.10;5.55;;;5.20;99.90;;;;;;6206117;28;20058;-80
2023/02/01 05:29:07;;;;;;;9.60;7.27;;;5.20;99.90;;;;;;6206475;28;20054;-80
2023/02/01 05:32:10;;;;;;;10.27;6.13;;;5.20;99.90;;;;;;6205793;28;20051;-80
2023/02/01 05:35:12;;;;;;;8.52;5.20;;;5.20;99.90;;;;;;6204863;28;20046;-80
2023/02/01 05:38:14;;;;;;;9.98;5.57;;;5.20;99.90;;;;;;6208221;28;20533;-79
2023/02/01 05:41:15;;;;;;;11.18;4.75;;;5.20;99.90;;;;;;6205914;28;20050;-79
2023/02/01 05:44:18;;;;;;;6.90;5.10;;;5.20;99.90;;;;;;6204158;28;20046;-79
2023/02/01 05:47:20;;;;;;;13.85;6.03;;;5.20;99.90;;;;;;6204256;28;20050;-80
2023/02/01 05:50:22;;;;;;;11.27;5.38;;;5.30;99.90;;;;;;6204597;28;20045;-80
2023/02/01 05:53:24;;;;;;;11.82;5.75;;;5.30;99.90;;;;;;6204295;28;20057;-79
2023/02/01 05:56:25;;;;;;;11.20;6.82;;;5.30;99.90;;;;;;6204316;28;20070;-79
2023/02/01 05:59:29;;;;;;;5.53;4.13;;;5.40;99.90;;;;;;6204284;28;20043;-81
2023/02/01 06:02:30;;;;;;;7.13;4.10;;;5.50;99.90;;;;;;6204319;28;20386;-80
2023/02/01 06:05:32;;;;;;;7.38;5.15;;;5.50;99.90;;;;;;6204542;28;20057;-80
2023/02/01 06:08:34;;;;;;;13.32;6.78;;;5.50;99.90;;;;;;6203921;28;20043;-80
2023/02/01 06:11:35;;;;;;;5.72;5.00;;;5.50;99.90;;;;;;6204695;28;20080;-81
2023/02/01 06:14:38;;;;;;;10.95;5.35;;;5.50;99.90;;;;;;6205473;28;20042;-80
2023/02/01 06:17:41;;;;;;;11.13;5.43;;;5.60;99.90;;;;;;6205459;28;20050;-80
2023/02/01 06:20:42;;;;;;;9.35;6.40;;;5.60;99.90;;;;;;6204802;28;20042;-80
2023/02/01 06:23:44;;;;;;;5.55;4.85;;;5.60;99.90;;;;;;6203791;28;20063;-80
2023/02/01 06:26:46;;;;;;;6.30;4.90;;;5.70;99.90;;;;;;6203154;28;20494;-80
2023/02/01 06:29:48;;;;;;;7.65;4.53;;;5.70;99.90;;;;;;6203827;28;20073;-80
2023/02/01 06:32:53;;;;;;;7.85;5.25;;;5.70;99.90;;;;;;6204090;28;20057;-80
2023/02/01 06:35:59;;;;;;;4.75;3.83;;;5.80;99.90;;;;;;6203991;28;20043;-81
2023/02/01 06:39:00;;;;;;;8.05;5.40;;;5.70;99.90;;;;;;6205000;28;20046;-81
2023/02/01 06:42:02;;;;;;;7.00;3.85;;;5.80;99.90;;;;;;6204895;28;20045;-82
2023/02/01 06:45:07;;;;;;;10.95;4.43;;;5.80;99.90;;;;;;6205780;28;20054;-82
2023/02/01 06:48:08;;;;;;;8.73;4.70;;;5.80;99.90;;;;;;6204928;28;20073;-81
2023/02/01 06:51:20;;;;;;;7.25;4.97;;;5.80;99.90;;;;;;6206872;28;20499;-81
2023/02/01 06:54:22;;;;;;;7.03;4.88;;;5.80;99.90;;;;;;6212423;28;20046;-81
2023/02/01 06:57:25;;;;;;;5.22;3.85;;;5.80;99.90;;;;;;6203100;28;20050;-80
2023/02/01 07:00:28;;;;;;;6.38;4.28;;;5.80;99.90;;;;;;6202465;28;20124;-82
2023/02/01 07:03:30;;;;;;;5.78;5.13;;;5.80;99.90;;;;;;6202498;28;20057;-81
2023/02/01 07:06:31;;;;;;;5.65;3.40;;;5.80;99.90;;;;;;6202487;28;20054;-81
2023/02/01 07:09:33;;;;;;;12.10;4.60;;;5.80;99.90;;;;;;6204072;28;20149;-81
2023/02/01 07:12:35;;;;;;;8.70;4.93;;;5.80;99.90;;;;;;6202887;28;20050;-81
2023/02/01 07:15:38;;;;;;;5.80;4.03;;;5.80;99.90;;;;;;6203246;28;20418;-81
2023/02/01 07:18:40;;;;;;;6.53;3.85;;;5.70;99.90;;;;;;6202733;28;20042;-80
2023/02/01 07:21:42;;;;;;;7.85;5.00;;;5.60;99.90;;;;;;6202449;28;20057;-80
2023/02/01 07:24:43;;;;;;;6.90;5.00;;;5.50;99.90;;;;;;6204162;28;20057;-80
2023/02/01 07:27:46;;;;;;;7.22;5.45;;;5.50;99.90;;;;;;6204144;28;20444;-82
2023/02/01 07:30:50;;;;;;;7.28;2.78;;;5.50;99.90;;;;;;6202785;28;20056;-80
2023/02/01 07:33:52;;;;;;;12.38;4.60;;;5.40;99.90;;;;;;6202786;28;20499;-80
2023/02/01 07:36:54;;;;;;;6.22;4.45;;;5.40;99.90;;;;;;6202355;28;20054;-80
2023/02/01 07:39:55;;;;;;;7.10;6.05;;;5.30;99.90;;;;;;6202644;28;20050;-78
2023/02/01 07:42:57;;;;;;;8.65;5.38;;;5.40;99.90;;;;;;6201010;28;20046;-80
2023/02/01 07:46:00;;;;;;;7.68;4.75;;;5.40;99.90;;;;;;6202857;28;20046;-80
2023/02/01 07:49:02;;;;;;;9.68;4.78;;;5.40;99.90;;;;;;6201785;28;20050;-80
2023/02/01 07:52:04;;;;;;;7.38;5.20;;;5.40;99.90;;;;;;6201038;28;20641;-80
2023/02/01 07:55:07;;;;;;;10.80;5.30;;;5.40;99.90;;;;;;6204029;28;20062;-81
2023/02/01 07:58:08;;;;;;;10.50;4.80;;;5.40;99.90;;;;;;6201134;28;20410;-81
2023/02/01 08:01:24;;;;;;;8.52;4.35;;;5.40;99.90;;;;;;6202532;28;20046;-81
2023/02/01 08:04:25;;;;;;;6.75;4.07;;;5.40;99.90;;;;;;6200705;28;20084;-81
2023/02/01 08:07:27;;;;;;;5.90;3.45;;;5.40;99.90;;;;;;6199686;28;20517;-80
2023/02/01 08:10:29;;;;;;;8.82;4.22;;;5.50;99.90;;;;;;6199228;28;20042;-80
2023/02/01 08:13:32;;;;;;;4.97;3.78;;;5.50;99.90;;;;;;6199904;28;20062;-79
2023/02/01 08:16:37;;;;;;;7.82;4.68;;;5.40;99.90;;;;;;6199938;28;20057;-81
2023/02/01 08:19:39;;;;;;;5.72;4.05;;;5.40;99.90;;;;;;6200598;28;20038;-82
2023/02/01 08:22:42;;;;;;;5.57;3.25;;;5.40;99.90;;;;;;6200978;28;20058;-81
2023/02/01 08:25:44;;;;;;;5.63;3.13;;;5.50;99.90;;;;;;6198674;28;20062;-82
2023/02/01 08:28:49;;;;;;;10.18;3.40;;;5.50;99.90;;;;;;6200387;28;20047;-81
2023/02/01 08:31:52;;;;;;;5.55;3.72;;;5.40;99.90;;;;;;6205642;28;20050;-79
2023/02/01 08:34:54;;;;;;;6.07;3.92;;;5.40;99.90;;;;;;6205881;28;20053;-80
2023/02/01 08:37:56;;;;;;;5.97;3.50;;;5.40;99.90;;;;;;6207079;28;20058;-81
2023/02/01 08:40:58;;;;;;;8.23;4.57;;;5.50;99.90;;;;;;6208966;28;20042;-80
2023/02/01 08:44:00;;;;;;;8.15;5.60;;;5.50;99.90;;;;;;6206374;28;20081;-81
2023/02/01 08:47:03;;;;;;;5.15;4.15;;;5.50;99.90;;;;;;6206239;28;20065;-81
2023/02/01 08:50:05;;;;;;;11.55;4.70;;;5.50;99.90;;;;;;6205542;28;20502;-80
2023/02/01 08:53:07;;;;;;;8.73;4.35;;;5.50;99.90;;;;;;6206366;28;20053;-81
2023/02/01 08:56:11;;;;;;;9.73;4.93;;;5.50;99.90;;;;;;6201274;28;20406;-81
2023/02/01 08:59:25;;;;;;;8.18;4.65;;;5.50;99.90;;;;;;6194086;28;20058;-80
2023/02/01 09:02:28;;;;;;;7.82;4.15;;;5.60;99.90;;;;;;6205204;28;20053;-80
2023/02/01 09:05:30;;;;;;;10.05;4.60;;;5.60;99.90;;;;;;6203555;28;20063;-79
2023/02/01 09:08:32;;;;;;;5.50;4.20;;;5.60;99.90;;;;;;6206055;28;20055;-79
2023/02/01 09:11:34;;;;;;;11.10;4.63;;;5.60;99.90;;;;;;6204592;28;20051;-79
2023/02/01 09:14:36;;;;;;;9.07;4.32;;;5.70;99.90;;;;;;6206652;28;20038;-80
2023/02/01 09:17:41;;;;;;;8.35;5.55;;;5.80;99.90;;;;;;6205831;28;20050;-80
2023/02/01 09:20:43;;;;;;;5.22;4.05;;;5.90;99.90;;;;;;6204811;28;20047;-79
2023/02/01 09:24:07;;;;;;;8.43;3.67;;;6.00;99.90;;;;;;6204068;28;20042;-79
2023/02/01 09:27:09;;;;;;;5.47;4.10;;;6.00;99.90;;;;;;6198816;28;20058;-80
2023/02/01 09:30:12;;;;;;;9.65;3.97;;;6.10;99.90;;;;;;6204277;28;20046;-80
2023/02/01 09:33:17;;;;;;;9.98;3.78;;;6.20;99.90;;;;;;6204727;28;20073;-79
2023/02/01 09:36:19;;;;;;;10.88;3.75;;;6.20;99.90;;;;;;6203933;28;20058;-79
2023/02/01 09:39:21;;;;;;;4.60;3.30;;;6.20;99.90;;;;;;6205029;28;20043;-79
2023/02/01 09:42:36;;;;;;;8.30;3.40;;;6.20;99.90;;;;;;6204903;28;20050;-80
2023/02/01 09:46:01;;;;;;;13.00;4.25;;;6.20;99.90;;;;;;6205287;28;20053;-81
2023/02/01 09:49:09;;;;;;;6.40;3.83;;;6.20;99.90;;;;;;6204299;28;20137;-80
2023/02/01 09:52:16;;;;;;;11.23;3.70;;;6.20;99.90;;;;;;6204708;28;20057;-79
2023/02/01 09:55:26;;;;;;;7.75;3.53;;;6.20;99.90;;;;;;6201312;28;20047;-79
2023/02/01 09:58:32;;;;;;;6.70;2.88;;;6.20;99.90;;;;;;6198473;28;20046;-80
2023/02/01 10:01:35;;;;;;;9.90;4.28;;;6.20;99.90;;;;;;6202939;28;20046;-81
2023/02/01 10:04:44;;;;;;;3.97;1.80;;;6.20;99.90;;;;;;6200938;28;20058;-80
2023/02/01 10:08:04;;;;;;;6.95;2.63;;;6.30;99.90;;;;;;6199969;28;20073;-80
2023/02/01 10:11:17;;;;;;;10.57;3.95;;;6.30;99.90;;;;;;6201519;28;20057;-80
2023/02/01 10:14:39;;;;;;;9.77;2.70;;;6.30;99.90;;;;;;6203051;28;20070;-81
2023/02/01 10:18:08;;;;;;;9.60;3.25;;;6.30;99.90;;;;;;6203500;28;20053;-79
2023/02/01 10:21:30;;;;;;;20.73;4.20;;;6.40;99.90;;;;;;6202518;28;20046;-80
2023/02/01 10:24:57;;;;;;;10.55;3.67;;;6.40;99.90;;;;;;6198778;28;20082;-81
2023/02/01 10:28:01;;;;;;;8.50;3.65;;;6.60;99.90;;;;;;6193964;28;20062;-79
2023/02/01 10:31:04;;;;;;;9.82;3.33;;;6.50;99.90;;;;;;6202726;28;20050;-81
2023/02/01 10:34:16;;;;;;;5.10;3.40;;;6.60;99.90;;;;;;6203483;28;20458;-79
2023/02/01 10:37:29;;;;;;;9.40;3.92;;;6.70;99.90;;;;;;6203440;28;20050;-79
2023/02/01 10:40:30;;;;;;;7.65;3.58;;;6.70;99.90;;;;;;6203082;28;20046;-80
2023/02/01 10:43:40;;;;;;;3.83;3.03;;;6.70;99.90;;;;;;6202933;28;20046;-79
2023/02/01 10:46:44;;;;;;;10.57;4.07;;;6.70;99.90;;;;;;6201732;28;20477;-82
2023/02/01 10:49:53;;;;;;;5.75;3.08;;;6.70;99.90;;;;;;6201949;28;20530;-81
2023/02/01 10:53:05;;;;;;;9.52;3.70;;;6.80;99.90;;;;;;6202599;28;20073;-80
2023/02/01 10:56:08;;;;;;;11.50;4.10;;;6.90;99.90;;;;;;6205874;28;20062;-80
2023/02/01 10:59:20;;;;;;;8.10;2.88;;;6.90;99.90;;;;;;6262243;23;20049;-79
2023/02/01 11:02:30;;;;;;;7.05;3.95;;;7.00;99.90;;;;;;6235482;28;20505;-82
2023/02/01 11:05:44;;;;;;;5.05;2.88;;;7.00;99.90;;;;;;6228035;28;20132;-81
2023/02/01 11:08:50;;;;;;;5.40;3.03;;;7.10;99.90;;;;;;6227651;28;20057;-81
2023/02/01 11:11:58;;;;;;;9.07;3.15;;;7.10;99.90;;;;;;6230093;28;20057;-80
2023/02/01 11:15:13;;;;;;;9.10;4.20;;;7.10;99.90;;;;;;6228139;28;20050;-82
2023/02/01 11:18:19;;;;;;;9.27;4.70;;;7.20;99.90;;;;;;6227623;28;20052;-79
2023/02/01 11:21:22;;;;;;;13.15;4.13;;;7.20;99.90;;;;;;6228975;28;20493;-80
2023/02/01 11:24:29;;;;;;;11.15;5.60;;;7.20;99.90;;;;;;6226579;28;20041;-81
2023/02/01 11:27:34;;;;;;;6.95;4.00;;;7.20;99.90;;;;;;6235403;28;20041;-80
2023/02/01 11:30:40;;;;;;;9.88;3.60;;;7.20;99.90;;;;;;6252422;28;20061;-80
2023/02/01 11:33:48;;;;;;;7.95;3.70;;;7.10;99.90;;;;;;6255944;28;20049;-79
2023/02/01 11:36:52;;;;;;;4.20;3.80;;;7.00;99.90;;;;;;6252125;28;20056;-81
2023/02/01 11:39:58;;;;;;;5.32;3.42;;;7.00;99.90;;;;;;6252209;28;20179;-80
2023/02/01 11:43:01;;;;;;;6.32;3.45;;;7.00;99.90;;;;;;6257731;28;20041;-79
2023/02/01 11:46:16;;;;;;;11.15;3.25;;;7.00;99.90;;;;;;6243399;28;20058;-81
2023/02/01 11:49:24;;;;;;;6.40;3.22;;;7.10;99.90;;;;;;6237284;28;20060;-81
2023/02/01 11:52:37;;;;;;;;;;;7.10;99.90;;;;;;6236081;28;20492;-81
2023/02/01 11:56:01;;;;;;;7.90;3.42;;;7.20;99.90;;;;;;6231072;28;19929;-81
2023/02/01 11:59:13;;;;;;;6.72;3.20;;;7.30;99.90;;;;;;6225889;28;20049;-82
2023/02/01 12:02:51;;;;;;;6.38;3.30;;;7.30;99.90;;;;;;6229882;28;20519;-82
2023/02/01 12:05:56;;;;;;;5.05;3.13;;;7.40;99.90;;;;;;6227554;28;20054;-80
2023/02/01 12:09:18;;;;;;;6.55;3.22;;;7.40;99.90;;;;;;6229289;28;20140;-81
2023/02/01 12:12:46;;;;;;;12.27;4.05;;;7.50;99.90;;;;;;6232560;28;20077;-82
2023/02/01 12:16:01;;;;;;;5.97;4.63;;;7.50;99.90;;;;;;6231208;28;20045;-80
2023/02/01 12:19:25;;;;;;;10.23;3.78;;;7.60;99.90;;;;;;6237705;28;20042;-81
2023/02/01 12:22:42;;;;;;;11.90;3.75;;;7.60;99.90;;;;;;6226284;28;20053;-81
2023/02/01 12:26:00;;;;;;;14.23;4.10;;;7.60;99.90;;;;;;6229117;28;20046;-80
2023/02/01 12:29:17;;;;;;;6.88;3.67;;;7.70;99.90;;;;;;6231101;28;20137;-80
2023/02/01 12:32:32;;;;;;;10.68;4.53;;;7.60;99.90;;;;;;6231788;28;20403;-81
2023/02/01 12:35:50;;;;;;;11.95;5.03;;;7.50;99.90;;;;;;6226379;28;20128;-81
2023/02/01 12:38:57;;;;;;;16.25;7.15;;;7.50;99.90;;;;;;6225563;28;20046;-80
2023/02/01 12:42:04;;;;;;;14.65;3.70;;;7.40;99.90;;;;;;6232142;28;20049;-80
2023/02/01 12:45:17;;;;;;;32.28;16.05;;;7.40;99.90;;;;;;6230842;28;20050;-80
2023/02/01 12:48:29;;;;;;;21.25;7.53;;;7.40;99.90;;;;;;6229305;28;20070;-80
2023/02/01 12:51:35;;;;;;;36.10;10.70;;;7.30;99.90;;;;;;6230750;28;20053;-80
2023/02/01 12:54:43;;;;;;;9.55;4.97;;;7.30;99.90;;;;;;6228862;28;20050;-81
2023/02/01 12:57:50;;;;;;;13.45;7.63;;;7.20;99.90;;;;;;6242019;28;20054;-81
2023/02/01 13:01:00;;;;;;;11.15;4.07;;;7.20;99.90;;;;;;6207553;28;20053;-81
2023/02/01 13:04:11;;;;;;;9.05;3.50;;;7.10;99.90;;;;;;6219657;28;20525;-79
2023/02/01 13:07:18;;;;;;;9.07;3.40;;;7.10;99.90;;;;;;6234278;28;20564;-80
2023/02/01 13:10:28;;;;;;;10.57;4.75;;;7.10;99.90;;;;;;6232036;28;20509;-80
2023/02/01 13:13:33;;;;;;;10.30;5.80;;;7.10;99.90;;;;;;6229197;28;20077;-80
2023/02/01 13:16:41;;;;;;;7.72;4.60;;;7.10;99.90;;;;;;6229599;28;20072;-80
2023/02/01 13:19:49;;;;;;;11.18;3.75;;;7.10;99.90;;;;;;6234581;28;20052;-79
2023/02/01 13:22:55;;;;;;;7.53;3.55;;;7.00;99.90;;;;;;6235974;28;20506;-79
2023/02/01 13:25:57;;;;;;;13.00;3.53;;;7.00;99.90;;;;;;6233859;28;20050;-80
2023/02/01 13:29:05;;;;;;;12.55;3.88;;;7.00;99.90;;;;;;6246563;28;20421;-79
2023/02/01 13:32:20;;;;;;;;;;;7.00;99.90;;;;;;6249679;28;20528;-79
2023/02/01 13:35:37;;;;;;;17.25;4.10;;;7.10;99.90;;;;;;6230524;28;19928;-80
2023/02/01 13:39:28;;;;;;;25.95;5.50;;;7.10;99.90;;;;;;6233191;28;20052;-80
2023/02/01 13:42:32;;;;;;;11.00;4.18;;;7.20;99.90;;;;;;6241264;28;20064;-81
2023/02/01 13:45:38;;;;;;;19.98;7.50;;;7.30;99.90;;;;;;6259798;28;20485;-79
2023/02/01 13:48:48;;;;;;;17.48;8.38;;;7.30;99.90;;;;;;6257605;28;20056;-79
2023/02/01 13:51:52;;;;;;;12.10;3.75;;;7.40;99.90;;;;;;6259562;28;20044;-80
2023/02/01 13:55:14;;;;;;;11.30;3.17;;;7.30;99.90;;;;;;6253705;28;20049;-80
2023/02/01 13:58:20;;;;;;;10.02;3.78;;;7.40;99.90;;;;;;6238119;28;20048;-79
2023/02/01 14:01:35;;;;;;;9.48;4.32;;;7.40;99.90;;;;;;6254342;28;20046;-79
2023/02/01 14:04:49;;;;;;;7.93;3.83;;;7.40;99.90;;;;;;6238984;28;20046;-80
2023/02/01 14:08:13;;;;;;;8.38;4.13;;;7.40;99.90;;;;;;6237703;28;20049;-80
2023/02/01 14:11:42;;;;;;;8.52;3.58;;;7.50;99.90;;;;;;6232880;28;20077;-79
2023/02/01 14:14:45;;;;;;;21.98;4.55;;;7.50;99.90;;;;;;6208524;28;20494;-79
2023/02/01 14:17:47;;;;;;;12.93;11.43;;;7.50;99.90;;;;;;6234229;28;20058;-80
2023/02/01 14:20:52;;;;;;;15.02;5.43;;;7.60;99.90;;;;;;6235778;28;20141;-80
2023/02/01 14:23:59;;;;;;;12.55;4.32;;;7.60;99.90;;;;;;6232417;28;20100;-80
2023/02/01 14:27:04;;;;;;;14.10;3.45;;;7.60;99.90;;;;;;6239029;28;20048;-80
2023/02/01 14:30:08;;;;;;;16.65;4.60;;;7.60;99.90;;;;;;6254006;28;20046;-80
2023/02/01 14:33:20;;;;;;;19.52;5.15;;;7.70;99.90;;;;;;6263851;28;20057;-80
2023/02/01 14:36:24;;;;;;;13.75;3.47;;;7.70;99.90;;;;;;6263434;28;20045;-79
2023/02/01 14:39:34;;;;;;;13.27;4.72;;;7.70;99.90;;;;;;6243181;28;20078;-79
2023/02/01 14:42:45;;;;;;;18.60;7.55;;;7.70;99.90;;;;;;6240414;28;20061;-80
2023/02/01 14:46:01;;;;;;;14.55;6.47;;;7.70;99.90;;;;;;7005235;23;20057;-81
2023/02/01 14:49:03;;;;;;;18.50;7.32;;;7.70;99.90;;;;;;6197794;28;20089;-80
2023/02/01 14:52:13;;;;;;;15.95;9.25;;;7.70;99.90;;;;;;6198226;28;20141;-82
2023/02/01 14:55:19;;;;;;;30.90;13.55;;;7.80;99.90;;;;;;6193390;28;20520;-81
2023/02/01 14:58:33;;;;;;;30.05;8.57;;;7.80;99.90;;;;;;6188365;28;20425;-81
2023/02/01 15:01:38;;;;;;;20.10;4.75;;;7.80;99.90;;;;;;6203096;28;20053;-81
2023/02/01 15:04:42;;;;;;;10.98;4.28;;;7.90;99.90;;;;;;6201124;28;20057;-82
2023/02/01 15:07:45;;;;;;;10.70;3.97;;;7.90;99.90;;;;;;6183374;28;20050;-82
2023/02/01 15:10:50;;;;;;;21.17;4.75;;;8.00;99.90;;;;;;6177557;28;20049;-80
2023/02/01 15:13:55;;;;;;;15.98;4.30;;;8.00;99.90;;;;;;6179437;28;20050;-81
2023/02/01 15:16:57;;;;;;;7.28;2.65;;;8.00;99.90;;;;;;6180320;28;20062;-81
2023/02/01 15:20:00;;;;;;;9.80;4.07;;;8.00;99.90;;;;;;6187262;28;20421;-81
2023/02/01 15:23:05;;;;;;;17.35;4.40;;;8.00;99.90;;;;;;6192367;28;20057;-81
2023/02/01 15:26:06;;;;;;;12.18;4.82;;;8.00;99.90;;;;;;6201764;28;20030;-82
2023/02/01 15:29:12;;;;;;;16.60;3.45;;;8.00;99.90;;;;;;6202709;28;20054;-80
2023/02/01 15:32:30;;;;;;;15.57;5.07;;;8.00;99.90;;;;;;6202433;28;20445;-81
2023/02/01 15:35:38;;;;;;;15.55;4.47;;;8.00;99.90;;;;;;6201706;28;20058;-80
2023/02/01 15:38:42;;;;;;;15.50;4.60;;;8.00;99.90;;;;;;6201908;28;20529;-81
2023/02/01 15:41:47;;;;;;;13.02;4.45;;;7.90;99.90;;;;;;6202757;28;20042;-81
2023/02/01 15:44:49;;;;;;;27.45;12.75;;;7.90;99.90;;;;;;6202863;28;20054;-80
2023/02/01 15:47:53;;;;;;;30.70;14.07;;;7.90;99.90;;;;;;6201899;28;20414;-80
2023/02/01 15:50:56;;;;;;;41.58;17.65;;;7.90;99.90;;;;;;6177582;28;20046;-81
2023/02/01 15:54:03;;;;;;;31.65;12.27;;;7.80;99.90;;;;;;6178061;28;20526;-81
2023/02/01 15:57:05;;;;;;;11.10;6.47;;;7.80;99.90;;;;;;6195692;28;20057;-82
2023/02/01 16:00:20;;;;;;;10.93;3.95;;;7.80;99.90;;;;;;6202835;28;20073;-81
2023/02/01 16:03:35;;;;;;;13.80;5.97;;;7.70;99.90;;;;;;6202411;28;20053;-81
2023/02/01 16:06:39;;;;;;;12.13;4.32;;;7.70;99.90;;;;;;6193395;28;20458;-81
2023/02/01 16:09:55;;;;;;;7.10;4.20;;;7.70;99.90;;;;;;6179241;28;20062;-82
2023/02/01 16:12:59;;;;;;;15.55;4.40;;;7.70;99.90;;;;;;6179908;28;20035;-81
2023/02/01 16:16:01;;;;;;;7.38;2.95;;;7.60;99.90;;;;;;6178645;28;20062;-80
2023/02/01 16:19:03;;;;;;;14.43;3.30;;;7.70;99.90;;;;;;6177253;28;20077;-82
2023/02/01 16:22:06;;;;;;;4.35;3.80;;;7.60;99.90;;;;;;6179221;28;20697;-81
2023/02/01 16:25:09;;;;;;;23.08;5.03;;;7.60;99.90;;;;;;6181402;28;20055;-80
2023/02/01 16:28:11;;;;;;;13.85;3.60;;;7.60;99.90;;;;;;6205018;28;20425;-81
2023/02/01 16:31:18;;;;;;;12.75;3.35;;;7.60;99.90;;;;;;6206578;28;20043;-80
2023/02/01 16:34:20;;;;;;;14.75;5.18;;;7.60;99.90;;;;;;6206100;28;20417;-81
2023/02/01 16:37:25;;;;;;;8.52;3.38;;;7.60;99.90;;;;;;6201163;28;20062;-79
2023/02/01 16:40:28;;;;;;;13.80;2.75;;;7.60;99.90;;;;;;6200867;28;20505;-80
2023/02/01 16:43:30;;;;;;;4.90;3.33;;;7.60;99.90;;;;;;6201298;28;20050;-82